Time;durP1;ratioP1;P1;durP2;ratioP2;P2;SDS_P1;SDS_P2;PMS_P1;PMS_P2;Temp;Humidity;BMP_temperature;BMP_pressure;BME280_temperature;BME280_humidity;BME280_pressure;Samples;Min_cycle;Max_cycle;Signal;HPM_P1;HPM_P2
2022/03/02 00:01:54;;;;;;;17.73;7.75;;;;;;;-1.54;51.79;101355.50;4439511;32;20147;-76
2022/03/02 00:04:21;;;;;;;20.05;8.23;;;;;;;-1.46;51.70;101360.25;4439180;32;20172;-76
2022/03/02 00:06:48;;;;;;;20.83;7.82;;;;;;;-1.62;52.21;101355.09;4453775;32;20341;-76
2022/03/02 00:09:15;;;;;;;18.33;8.55;;;;;;;-1.69;52.73;101353.00;4453835;32;20096;-76
2022/03/02 00:11:44;;;;;;;17.60;7.40;;;;;;;-1.87;53.81;101347.75;4453513;32;20096;-76
2022/03/02 00:14:11;;;;;;;19.62;8.13;;;;;;;-1.91;54.50;101345.78;4453933;32;20085;-76
2022/03/02 00:16:39;;;;;;;19.10;8.38;;;;;;;-1.76;53.25;101340.56;4453727;32;20165;-76
2022/03/02 00:19:08;;;;;;;16.95;7.78;;;;;;;-1.94;54.53;101338.78;4453815;32;20092;-76
2022/03/02 00:21:35;;;;;;;16.30;7.70;;;;;;;-2.05;55.27;101336.41;4453629;32;20097;-76
2022/03/02 00:24:04;;;;;;;15.00;7.05;;;;;;;-1.86;54.69;101343.47;4453496;32;20085;-76
2022/03/02 00:26:32;;;;;;;15.95;6.62;;;;;;;-1.89;54.57;101341.59;4453499;32;20081;-76
2022/03/02 00:29:00;;;;;;;14.73;6.47;;;;;;;-1.80;54.16;101342.09;4453423;32;20097;-76
2022/03/02 00:31:28;;;;;;;17.42;7.72;;;;;;;-1.81;54.12;101334.25;4438932;32;20121;-76
2022/03/02 00:33:55;;;;;;;15.73;7.82;;;;;;;-1.80;54.23;101336.94;4453598;32;20106;-76
2022/03/02 00:36:22;;;;;;;20.00;8.57;;;;;;;-1.75;54.02;101332.88;4453723;32;20089;-76
2022/03/02 00:38:49;;;;;;;18.65;8.75;;;;;;;-1.78;54.22;101334.41;4453279;32;20165;-76
2022/03/02 00:41:17;;;;;;;21.52;8.25;;;;;;;-1.76;53.70;101327.66;4453289;32;20353;-76
2022/03/02 00:43:47;;;;;;;17.02;8.27;;;;;;;-1.73;53.51;101320.94;4453336;32;20158;-76
2022/03/02 00:46:16;;;;;;;18.67;8.40;;;;;;;-1.75;53.80;101321.66;4453462;32;20116;-76
2022/03/02 00:48:44;;;;;;;17.55;8.23;;;;;;;-2.01;55.96;101315.13;4453298;32;20169;-76
2022/03/02 00:51:11;;;;;;;16.30;8.10;;;;;;;-1.97;54.60;101317.06;4453245;32;20176;-76
2022/03/02 00:53:39;;;;;;;17.37;7.50;;;;;;;-1.87;54.67;101313.25;4453382;32;20151;-76
2022/03/02 00:56:06;;;;;;;14.75;7.30;;;;;;;-1.73;54.20;101307.16;4453300;32;20097;-76
2022/03/02 00:58:33;;;;;;;17.48;7.75;;;;;;;-1.72;53.70;101301.16;4453202;32;20089;-76
2022/03/02 01:01:00;;;;;;;16.12;7.18;;;;;;;-1.65;53.60;101299.78;4453057;32;20170;-76
2022/03/02 01:03:28;;;;;;;16.20;7.70;;;;;;;-1.71;53.88;101284.84;4453069;32;20085;-76
2022/03/02 01:05:55;;;;;;;19.23;7.50;;;;;;;-1.76;53.98;101284.59;4453000;32;20126;-76
2022/03/02 01:08:22;;;;;;;15.75;7.68;;;;;;;-1.74;53.55;101285.56;4453008;32;20152;-76
2022/03/02 01:10:50;;;;;;;13.93;7.47;;;;;;;-1.87;54.46;101275.41;4455124;32;20169;-76
2022/03/02 01:13:17;;;;;;;18.05;7.00;;;;;;;-1.96;54.68;101286.12;4455171;32;20132;-76
2022/03/02 01:15:44;;;;;;;18.98;8.25;;;;;;;-2.01;54.73;101279.84;4455157;32;20153;-76
2022/03/02 01:18:11;;;;;;;19.08;8.10;;;;;;;-2.09;54.80;101275.94;4455143;32;20151;-76
2022/03/02 01:20:39;;;;;;;16.70;7.07;;;;;;;-2.38;56.91;101276.09;4455213;32;20109;-76
2022/03/02 01:23:06;;;;;;;20.08;8.23;;;;;;;-2.58;57.71;101268.16;4455163;32;20420;-76
2022/03/02 01:25:34;;;;;;;16.23;7.20;;;;;;;-2.52;57.25;101260.75;4455196;32;20105;-76
2022/03/02 01:28:01;;;;;;;14.23;6.60;;;;;;;-2.28;55.92;101261.19;4455156;32;20581;-76
2022/03/02 01:30:28;;;;;;;23.62;8.23;;;;;;;-2.28;55.97;101260.31;4455118;32;20180;-76
2022/03/02 01:32:56;;;;;;;19.23;8.38;;;;;;;-2.30;55.86;101254.16;4455068;32;20092;-76
2022/03/02 01:35:23;;;;;;;17.73;8.88;;;;;;;-2.40;55.99;101250.22;4455126;32;20105;-76
2022/03/02 01:37:50;;;;;;;20.55;8.90;;;;;;;-2.46;56.36;101248.19;4455032;32;20778;-76
2022/03/02 01:40:18;;;;;;;16.40;7.82;;;;;;;-2.49;56.39;101242.84;4455219;32;20109;-76
2022/03/02 01:42:45;;;;;;;18.60;7.57;;;;;;;-2.58;56.54;101244.94;4455051;32;20088;-76
2022/03/02 01:45:14;;;;;;;17.80;8.07;;;;;;;-2.62;56.86;101247.25;4455180;32;20088;-76
2022/03/02 01:47:41;;;;;;;18.50;8.05;;;;;;;-2.71;57.18;101243.37;4454950;32;20157;-76
2022/03/02 01:50:11;;;;;;;16.33;8.40;;;;;;;-2.63;56.93;101237.75;4454943;32;20097;-76
2022/03/02 01:52:38;;;;;;;18.55;8.60;;;;;;;-2.70;57.33;101237.41;4454991;32;20150;-76
2022/03/02 01:55:07;;;;;;;20.65;7.10;;;;;;;-2.71;57.02;101234.75;4454984;32;20617;-76
2022/03/02 01:57:35;;;;;;;22.98;8.07;;;;;;;-2.75;57.36;101243.13;4454936;32;20434;-76
2022/03/02 02:00:09;;;;;;;16.23;7.32;;;;;;;-2.79;57.42;101231.75;4454887;32;20109;-76
2022/03/02 02:02:37;;;;;;;14.85;8.00;;;;;;;-2.75;56.95;101233.69;4454863;32;20104;-76
2022/03/02 02:05:05;;;;;;;21.48;9.07;;;;;;;-3.10;60.78;101234.31;4454783;32;20092;-76
2022/03/02 02:07:32;;;;;;;16.90;8.90;;;;;;;-3.38;62.47;101239.56;4454918;32;20093;-76
2022/03/02 02:10:00;;;;;;;17.92;8.07;;;;;;;-3.54;62.18;101239.47;4454830;32;20092;-76
2022/03/02 02:12:27;;;;;;;16.25;7.53;;;;;;;-3.38;60.75;101244.72;4454692;32;20110;-76
2022/03/02 02:14:54;;;;;;;16.95;7.28;;;;;;;-3.32;60.34;101239.00;4454750;32;20093;-76
2022/03/02 02:17:22;;;;;;;18.85;7.20;;;;;;;-3.32;60.14;101239.00;4454795;32;20608;-76
2022/03/02 02:19:49;;;;;;;15.23;6.60;;;;;;;-3.28;60.16;101228.12;4454771;32;20104;-76
2022/03/02 02:22:17;;;;;;;13.00;6.22;;;;;;;-3.41;61.25;101227.38;4454771;32;20142;-76
2022/03/02 02:24:45;;;;;;;16.52;7.07;;;;;;;-3.52;62.42;101227.59;4454618;32;20096;-76
2022/03/02 02:27:15;;;;;;;16.85;6.80;;;;;;;-3.66;62.47;101231.91;4454742;32;20101;-76
2022/03/02 02:29:44;;;;;;;13.45;6.35;;;;;;;-3.79;63.31;101220.00;4454870;32;20118;-76
2022/03/02 02:32:11;;;;;;;14.55;6.40;;;;;;;-3.60;61.84;101222.00;4454785;32;20131;-76
2022/03/02 02:34:40;;;;;;;25.95;6.53;;;;;;;-3.19;59.52;101216.63;4454661;32;20100;-76
2022/03/02 02:37:08;;;;;;;12.35;6.47;;;;;;;-2.98;58.21;101223.78;4454652;32;20459;-76
2022/03/02 02:39:36;;;;;;;14.15;6.22;;;;;;;-3.04;58.61;101224.34;4454594;32;20476;-76
2022/03/02 02:42:08;;;;;;;16.70;6.97;;;;;;;-3.33;60.43;101222.66;4454688;32;20384;-76
2022/03/02 02:44:36;;;;;;;13.55;6.30;;;;;;;-3.57;62.60;101229.87;4454645;32;20084;-76
2022/03/02 02:47:03;;;;;;;13.05;5.97;;;;;;;-3.80;63.66;101223.37;4454655;32;20155;-76
2022/03/02 02:49:30;;;;;;;13.40;6.45;;;;;;;-3.67;61.76;101225.00;4454550;32;20117;-76
2022/03/02 02:51:58;;;;;;;13.15;6.12;;;;;;;-3.62;61.24;101221.00;4454745;32;20085;-76
2022/03/02 02:54:25;;;;;;;12.70;6.05;;;;;;;-3.51;60.41;101219.03;4454567;32;20153;-76
2022/03/02 02:56:52;;;;;;;12.90;6.15;;;;;;;-3.38;59.73;101226.69;4454621;32;20127;-76
2022/03/02 02:59:20;;;;;;;16.73;6.62;;;;;;;-3.40;60.33;101223.13;4454498;32;20108;-76
2022/03/02 03:01:47;;;;;;;14.82;6.45;;;;;;;-3.62;62.59;101231.28;4454527;32;20563;-76
2022/03/02 03:04:14;;;;;;;14.07;6.10;;;;;;;-3.75;62.15;101218.50;4454545;32;20092;-76
2022/03/02 03:06:41;;;;;;;14.02;6.22;;;;;;;-3.54;60.75;101227.47;4454568;32;20112;-76
2022/03/02 03:09:08;;;;;;;14.38;5.85;;;;;;;-3.36;59.62;101232.78;4454444;32;20093;-76
2022/03/02 03:11:39;;;;;;;11.93;5.50;;;;;;;-3.32;59.15;101221.91;4454452;32;20107;-76
2022/03/02 03:14:12;;;;;;;12.15;5.80;;;;;;;-3.12;58.09;101217.84;4454538;32;20080;-76
2022/03/02 03:16:41;;;;;;;12.20;6.28;;;;;;;-3.07;57.73;101228.41;4454449;32;20562;-76
2022/03/02 03:19:08;;;;;;;15.88;6.40;;;;;;;-2.99;57.39;101228.06;4454552;32;20131;-76
2022/03/02 03:21:36;;;;;;;11.32;6.05;;;;;;;-2.97;57.13;101221.31;4439897;32;20076;-76
2022/03/02 03:24:04;;;;;;;11.57;5.95;;;;;;;-3.03;57.97;101220.06;4454288;32;20849;-76
2022/03/02 03:26:31;;;;;;;9.95;5.32;;;;;;;-3.14;58.08;101228.09;4454220;32;20104;-76
2022/03/02 03:28:59;;;;;;;11.20;5.47;;;;;;;-3.13;57.53;101231.53;4454398;32;20139;-76
2022/03/02 03:31:26;;;;;;;12.85;6.05;;;;;;;-3.16;57.64;101216.78;4453838;32;20076;-76
2022/03/02 03:33:53;;;;;;;11.93;5.82;;;;;;;-3.29;59.55;101224.63;4454257;32;20088;-76
2022/03/02 03:36:20;;;;;;;10.88;5.97;;;;;;;-3.22;59.04;101216.44;4454397;32;20127;-76
2022/03/02 03:38:47;;;;;;;10.93;5.75;;;;;;;-3.37;58.87;101216.44;4439460;32;20767;-76
2022/03/02 03:41:15;;;;;;;11.88;5.72;;;;;;;-3.39;58.75;101219.78;4454264;32;20119;-76
2022/03/02 03:43:43;;;;;;;10.57;5.25;;;;;;;-3.18;58.04;101214.91;4454159;32;20088;-76
2022/03/02 03:46:10;;;;;;;11.30;5.53;;;;;;;-3.13;57.26;101223.81;4454049;32;20101;-76
2022/03/02 03:48:38;;;;;;;11.35;5.43;;;;;;;-3.03;56.72;101214.91;4454254;32;20124;-76
2022/03/02 03:51:06;;;;;;;11.25;4.97;;;;;;;-2.94;57.15;101210.25;4454080;32;20518;-76
2022/03/02 03:53:34;;;;;;;9.68;4.93;;;;;;;-2.87;56.12;101214.06;4454083;32;20477;-76
2022/03/02 03:56:02;;;;;;;9.73;5.22;;;;;;;-2.87;55.88;101207.22;4454013;32;20097;-76
2022/03/02 03:58:29;;;;;;;16.20;5.72;;;;;;;-2.85;55.77;101205.63;4454206;32;20168;-76
2022/03/02 04:00:57;;;;;;;15.85;6.20;;;;;;;-2.79;55.71;101198.22;4453919;32;20538;-76
2022/03/02 04:03:25;;;;;;;12.70;5.37;;;;;;;-2.75;55.51;101202.75;4454075;32;20101;-76
2022/03/02 04:05:52;;;;;;;10.52;5.37;;;;;;;-2.77;55.84;101203.44;4453759;32;20486;-76
2022/03/02 04:08:22;;;;;;;9.98;5.25;;;;;;;-2.73;55.25;101206.28;4453837;32;20143;-76
2022/03/02 04:10:50;;;;;;;13.07;5.53;;;;;;;-2.66;55.58;101202.34;4453848;32;20076;-76
2022/03/02 04:13:17;;;;;;;13.68;5.32;;;;;;;-2.69;55.06;101203.06;4453515;32;20511;-76
2022/03/02 04:15:44;;;;;;;12.25;5.60;;;;;;;-2.66;54.98;101207.50;4454021;32;20437;-76
2022/03/02 04:18:12;;;;;;;13.23;5.85;;;;;;;-2.71;55.16;101201.22;4453707;32;20116;-76
2022/03/02 04:20:39;;;;;;;8.90;5.10;;;;;;;-2.67;55.20;101198.88;4453678;32;20450;-76
2022/03/02 04:23:08;;;;;;;11.15;5.95;;;;;;;-2.62;54.96;101200.81;4453656;32;20150;-76
2022/03/02 04:25:36;;;;;;;10.35;5.28;;;;;;;-2.68;55.11;101203.97;4453555;32;20116;-76
2022/03/02 04:28:03;;;;;;;13.43;6.30;;;;;;;-2.67;55.21;101201.47;4453554;32;20100;-76
2022/03/02 04:30:31;;;;;;;10.88;5.75;;;;;;;-2.73;55.80;101200.22;4453496;32;20358;-76
2022/03/02 04:33:00;;;;;;;14.18;5.87;;;;;;;-2.78;56.67;101199.09;4453534;32;20187;-76
2022/03/02 04:35:27;;;;;;;15.00;5.82;;;;;;;-2.76;56.88;101200.06;4453508;32;20506;-76
2022/03/02 04:37:54;;;;;;;10.93;6.15;;;;;;;-2.75;56.78;101204.44;4453456;32;20109;-76
2022/03/02 04:40:22;;;;;;;13.52;5.47;;;;;;;-2.74;56.61;101207.09;4453285;32;20081;-76
2022/03/02 04:42:50;;;;;;;12.20;5.50;;;;;;;-2.77;55.95;101196.59;4453298;32;20088;-76
2022/03/02 04:45:17;;;;;;;13.25;6.37;;;;;;;-2.67;55.90;101195.41;4454751;32;20550;-76
2022/03/02 04:47:44;;;;;;;13.13;5.60;;;;;;;-2.56;55.71;101181.41;4455499;32;20212;-76
2022/03/02 04:50:12;;;;;;;10.77;5.70;;;;;;;-2.51;55.56;101187.72;4455373;32;20149;-76
2022/03/02 04:52:39;;;;;;;13.15;5.85;;;;;;;-2.51;55.48;101179.97;4455319;32;20096;-76
2022/03/02 04:55:07;;;;;;;12.98;6.35;;;;;;;-2.54;55.49;101177.22;4455341;32;20162;-76
2022/03/02 04:57:38;;;;;;;34.97;13.27;;;;;;;-2.48;55.29;101174.94;4455409;32;20160;-77
2022/03/02 05:00:09;;;;;;;66.03;23.02;;;;;;;-2.48;55.68;101180.09;4455222;32;20392;-76
2022/03/02 05:02:38;;;;;;;25.90;10.10;;;;;;;-2.53;57.92;101178.97;4454327;32;20089;-76
2022/03/02 05:05:06;;;;;;;14.80;7.15;;;;;;;-2.55;56.52;101172.84;4445705;32;20128;-76
2022/03/02 05:07:34;;;;;;;16.12;6.03;;;;;;;-2.60;56.17;101174.31;4455075;32;20442;-77
2022/03/02 05:10:03;;;;;;;20.77;6.40;;;;;;;-2.50;55.67;101170.53;4454910;32;20081;-77
2022/03/02 05:12:31;;;;;;;12.27;5.68;;;;;;;-2.53;55.34;101168.66;4454925;32;20100;-77
2022/03/02 05:14:58;;;;;;;13.95;6.43;;;;;;;-2.59;56.71;101170.03;4455214;32;20150;-77
2022/03/02 05:17:25;;;;;;;15.98;6.60;;;;;;;-2.75;57.93;101173.50;4454928;32;20149;-77
2022/03/02 05:19:53;;;;;;;18.37;7.55;;;;;;;-2.76;57.27;101174.28;4455184;32;20165;-77
2022/03/02 05:22:20;;;;;;;26.05;7.30;;;;;;;-2.83;57.82;101174.75;4455107;32;20157;-77
2022/03/02 05:24:47;;;;;;;18.20;7.70;;;;;;;-2.77;57.62;101172.50;4455034;32;20120;-77
2022/03/02 05:27:14;;;;;;;13.62;6.68;;;;;;;-2.69;57.13;101172.09;4454987;32;20490;-77
2022/03/02 05:29:42;;;;;;;16.65;7.78;;;;;;;-2.54;56.62;101173.75;4454934;32;20114;-77
2022/03/02 05:32:10;;;;;;;17.27;7.20;;;;;;;-2.29;55.27;101174.25;4454886;32;20119;-77
2022/03/02 05:34:37;;;;;;;11.30;6.53;;;;;;;-2.31;55.39;101169.78;4455058;32;20101;-77
2022/03/02 05:37:04;;;;;;;15.63;7.62;;;;;;;-2.11;54.58;101171.72;4454939;32;20173;-77
2022/03/02 05:39:32;;;;;;;15.13;6.57;;;;;;;-2.06;54.39;101162.50;4454850;32;20092;-77
2022/03/02 05:41:59;;;;;;;13.60;6.30;;;;;;;-1.98;54.25;101174.12;4454938;32;20101;-77
2022/03/02 05:44:26;;;;;;;24.77;6.75;;;;;;;-1.97;54.03;101167.28;4455022;32;20088;-77
2022/03/02 05:46:54;;;;;;;14.20;5.97;;;;;;;-1.81;53.96;101168.91;4454690;32;20521;-77
2022/03/02 05:49:21;;;;;;;41.60;14.15;;;;;;;-1.77;53.70;101166.56;4454978;32;20867;-77
2022/03/02 05:51:48;;;;;;;23.00;8.63;;;;;;;-1.62;53.39;101174.22;4454963;32;20153;-77
2022/03/02 05:54:16;;;;;;;24.95;10.27;;;;;;;-1.54;53.08;101169.41;4454727;32;20111;-77
2022/03/02 05:56:43;;;;;;;36.40;12.15;;;;;;;-1.54;53.26;101159.97;4454566;32;20109;-77
2022/03/02 05:59:12;;;;;;;31.40;11.52;;;;;;;-1.50;53.25;101166.16;4454777;32;20092;-77
2022/03/02 06:01:41;;;;;;;14.23;6.53;;;;;;;-1.41;53.00;101166.63;4454641;32;20099;-77
2022/03/02 06:04:08;;;;;;;15.90;7.80;;;;;;;-1.34;53.30;101157.44;4454605;32;20206;-77
2022/03/02 06:06:40;;;;;;;24.00;13.52;;;;;;;-1.31;52.87;101152.44;4455298;32;20152;-77
2022/03/02 06:09:09;;;;;;;21.20;10.65;;;;;;;-1.17;52.49;101150.50;4455274;32;20084;-77
2022/03/02 06:11:38;;;;;;;21.33;6.90;;;;;;;-1.14;52.50;101153.25;4455500;32;20123;-77
2022/03/02 06:14:06;;;;;;;19.45;10.88;;;;;;;-1.12;53.61;101155.09;4455218;32;20161;-76
2022/03/02 06:16:33;;;;;;;28.62;11.63;;;;;;;-1.07;52.71;101163.94;4455241;32;20092;-77
2022/03/02 06:19:02;;;;;;;16.67;8.18;;;;;;;-1.03;52.47;101157.22;4455400;32;20146;-77
2022/03/02 06:21:30;;;;;;;17.58;8.90;;;;;;;-0.94;52.90;101160.25;4444364;32;20100;-76
2022/03/02 06:23:58;;;;;;;21.52;8.70;;;;;;;-0.80;52.13;101161.78;4438755;32;20093;-76
2022/03/02 06:26:26;;;;;;;16.02;7.37;;;;;;;-0.73;51.88;101166.41;4439614;32;20117;-76
2022/03/02 06:28:54;;;;;;;21.75;7.82;;;;;;;-0.57;52.21;101161.94;4439272;32;20094;-76
2022/03/02 06:31:21;;;;;;;24.55;7.00;;;;;;;-0.54;51.63;101160.38;4454323;32;20093;-76
2022/03/02 06:33:49;;;;;;;32.03;7.00;;;;;;;-0.37;51.72;101168.03;4470223;32;20494;-76
2022/03/02 06:36:16;;;;;;;20.70;7.93;;;;;;;-0.28;50.99;101171.03;4470247;32;20092;-76
2022/03/02 06:38:43;;;;;;;17.27;7.68;;;;;;;-0.21;51.07;101178.25;4470006;32;20088;-76
2022/03/02 06:41:28;;;;;;;24.27;9.55;;;;;;;-0.15;51.22;101172.44;4470100;32;20096;-76
2022/03/02 06:44:02;;;;;;;21.27;7.72;;;;;;;0.02;51.14;101170.59;4470120;32;20153;-76
2022/03/02 06:46:43;;;;;;;23.87;8.05;;;;;;;0.10;50.84;101176.97;4469998;32;20410;-76
2022/03/02 06:49:23;;;;;;;19.05;7.97;;;;;;;0.17;50.85;101173.81;4469808;32;20474;-76
2022/03/02 06:51:58;;;;;;;17.40;7.22;;;;;;;0.30;50.56;101173.53;4469942;32;20076;-77
2022/03/02 06:54:31;;;;;;;27.58;7.43;;;;;;;0.40;50.05;101162.72;4470053;32;20084;-76
2022/03/02 06:57:01;;;;;;;24.45;7.32;;;;;;;0.52;49.94;101164.06;4470079;32;20097;-76
2022/03/02 06:59:38;;;;;;;18.45;7.37;;;;;;;0.65;49.74;101158.56;4470190;32;20653;-76
2022/03/02 07:02:08;;;;;;;26.42;7.35;;;;;;;0.81;49.69;101158.31;4470010;32;20155;-76
2022/03/02 07:04:40;;;;;;;25.55;7.78;;;;;;;0.91;49.61;101165.66;4469843;32;20435;-76
2022/03/02 07:07:09;;;;;;;23.45;6.62;;;;;;;0.99;48.55;101163.38;4469203;32;20084;-76
2022/03/02 07:09:38;;;;;;;19.90;6.95;;;;;;;1.08;49.07;101157.66;4455539;32;20092;-77
2022/03/02 07:12:06;;;;;;;15.00;7.10;;;;;;;1.17;48.12;101158.91;4469739;32;20118;-76
2022/03/02 07:14:38;;;;;;;16.27;6.22;;;;;;;1.34;48.51;101150.84;4454916;32;20460;-77
2022/03/02 07:17:05;;;;;;;15.35;6.15;;;;;;;1.40;47.54;101151.09;4470010;32;20112;-77
2022/03/02 07:19:33;;;;;;;12.23;5.68;;;;;;;1.41;47.38;101148.56;4470052;32;20088;-76
2022/03/02 07:22:06;;;;;;;11.30;5.93;;;;;;;1.49;46.70;101143.66;4469992;32;20120;-76
2022/03/02 07:24:41;;;;;;;12.88;5.85;;;;;;;1.57;46.93;101146.53;4469968;32;20443;-76
2022/03/02 07:27:08;;;;;;;13.73;6.28;;;;;;;1.68;46.60;101145.19;4470340;32;20164;-77
2022/03/02 07:29:37;;;;;;;17.77;6.28;;;;;;;1.80;45.91;101140.47;4470162;32;20076;-77
2022/03/02 07:32:05;;;;;;;9.65;5.30;;;;;;;1.92;45.58;101137.41;4470284;32;20794;-77
2022/03/02 07:34:33;;;;;;;10.48;5.18;;;;;;;1.91;45.39;101140.84;4470464;32;20165;-77
2022/03/02 07:37:01;;;;;;;11.50;5.57;;;;;;;2.01;45.67;101129.03;4470367;32;20104;-76
2022/03/02 07:39:28;;;;;;;13.52;5.80;;;;;;;2.15;45.70;101138.19;4469987;32;20145;-77
2022/03/02 07:41:57;;;;;;;13.40;5.80;;;;;;;2.26;44.74;101146.34;4470575;32;20118;-77
2022/03/02 07:44:26;;;;;;;11.57;5.93;;;;;;;2.24;45.81;101138.50;4456146;32;20833;-77
2022/03/02 07:46:56;;;;;;;12.23;6.55;;;;;;;2.38;45.16;101134.66;4470123;32;20126;-77
2022/03/02 07:49:23;;;;;;;16.50;5.95;;;;;;;2.43;45.22;101137.41;4470255;32;20149;-77
2022/03/02 07:51:51;;;;;;;12.80;5.32;;;;;;;2.51;45.09;101127.25;4455725;32;20149;-78
2022/03/02 07:54:20;;;;;;;10.60;5.47;;;;;;;2.68;44.26;101125.19;4469689;32;20089;-77
2022/03/02 07:56:50;;;;;;;11.98;6.15;;;;;;;2.63;44.86;101127.66;4458455;32;20113;-77
2022/03/02 07:59:19;;;;;;;13.38;5.25;;;;;;;2.66;44.47;101125.16;4441951;32;20748;-78
2022/03/02 08:01:47;;;;;;;12.95;5.18;;;;;;;2.75;44.31;101120.22;4441712;32;20116;-77
2022/03/02 08:04:15;;;;;;;12.30;5.03;;;;;;;2.91;43.91;101120.72;4435106;32;20159;-77
2022/03/02 08:06:43;;;;;;;9.65;4.57;;;;;;;2.99;43.73;101121.84;4444864;32;20507;-77
2022/03/02 08:09:11;;;;;;;10.38;5.25;;;;;;;3.09;44.13;101118.69;4445486;32;20100;-76
2022/03/02 08:11:40;;;;;;;10.30;4.93;;;;;;;3.18;43.91;101112.84;4444344;32;20112;-77
2022/03/02 08:14:08;;;;;;;10.50;5.20;;;;;;;3.28;43.25;101107.94;4422805;32;20518;-76
2022/03/02 08:16:35;;;;;;;10.35;5.00;;;;;;;3.30;43.05;101103.69;4381934;32;20112;-77
2022/03/02 08:19:04;;;;;;;11.02;5.10;;;;;;;3.18;43.95;101111.16;4422485;32;20242;-77
2022/03/02 08:21:35;;;;;;;11.00;5.05;;;;;;;3.18;43.86;101108.53;4431702;32;20480;-77
2022/03/02 08:24:05;;;;;;;14.55;5.12;;;;;;;3.29;43.76;101098.44;4410504;32;20160;-77
2022/03/02 08:26:34;;;;;;;15.45;4.85;;;;;;;3.39;43.17;101099.56;4424527;32;20109;-77
2022/03/02 08:29:04;;;;;;;14.85;5.45;;;;;;;3.40;43.70;101096.16;4427288;32;20136;-76
2022/03/02 08:31:34;;;;;;;12.77;6.40;;;;;;;3.55;43.67;101093.97;4430830;32;20129;-77
2022/03/02 08:34:03;;;;;;;13.45;5.55;;;;;;;3.53;43.33;101093.94;4430203;32;20167;-77
2022/03/02 08:36:34;;;;;;;8.73;4.82;;;;;;;3.60;43.74;101092.34;4428855;32;20189;-77
2022/03/02 08:39:07;;;;;;;10.82;5.10;;;;;;;3.68;44.11;101088.25;4424655;32;20077;-77
2022/03/02 08:41:35;;;;;;;10.63;5.25;;;;;;;3.72;44.26;101087.50;4425770;32;20164;-77
2022/03/02 08:44:03;;;;;;;17.67;5.60;;;;;;;3.58;43.87;101083.63;4427422;32;20250;-77
2022/03/02 08:46:31;;;;;;;19.08;7.25;;;;;;;3.47;43.75;101078.13;4432756;32;20130;-77
2022/03/02 08:48:58;;;;;;;7.87;4.60;;;;;;;3.50;43.83;101070.38;4430615;32;20085;-77
2022/03/02 08:51:27;;;;;;;21.02;5.43;;;;;;;3.60;43.55;101076.72;4440360;32;20154;-77
2022/03/02 08:54:02;;;;;;;10.25;5.60;;;;;;;3.73;43.90;101072.72;4440579;32;20168;-76
2022/03/02 08:56:35;;;;;;;16.20;6.22;;;;;;;3.83;44.15;101067.81;4435779;32;20128;-78
2022/03/02 08:59:04;;;;;;;9.85;5.50;;;;;;;3.93;43.18;101057.63;4431336;32;20081;-78
2022/03/02 09:01:32;;;;;;;15.45;5.85;;;;;;;4.11;43.58;101057.22;4425517;32;20143;-78
2022/03/02 09:04:02;;;;;;;10.38;5.78;;;;;;;4.16;43.81;101059.06;4424469;32;20173;-78
2022/03/02 09:06:30;;;;;;;20.48;5.87;;;;;;;4.41;43.21;101063.16;4424884;32;20216;-77
2022/03/02 09:08:57;;;;;;;10.27;5.30;;;;;;;4.40;43.00;101057.91;4423746;32;21283;-77
2022/03/02 09:11:25;;;;;;;15.40;5.53;;;;;;;4.58;42.36;101060.06;4425946;32;20911;-77
2022/03/02 09:13:52;;;;;;;8.90;4.87;;;;;;;4.63;42.92;101059.34;4428804;32;20101;-79
2022/03/02 09:16:21;;;;;;;18.58;5.22;;;;;;;4.64;41.18;101058.50;4425004;32;20155;-71
2022/03/02 09:18:48;;;;;;;12.43;5.22;;;;;;;4.73;40.84;101048.25;4424968;32;20081;-72
2022/03/02 09:21:19;;;;;;;10.48;4.65;;;;;;;4.71;42.15;101056.91;4431575;32;20101;-73
2022/03/02 09:23:47;;;;;;;17.12;5.90;;;;;;;4.72;41.20;101049.09;4430400;32;20526;-75
2022/03/02 09:26:18;;;;;;;10.30;5.12;;;;;;;4.78;41.50;101048.38;4432646;32;20162;-78
2022/03/02 09:28:47;;;;;;;15.15;5.37;;;;;;;4.92;40.64;101046.94;4429529;32;20073;-76
2022/03/02 09:31:17;;;;;;;14.32;5.05;;;;;;;4.94;40.50;101045.22;4424345;32;20184;-76
2022/03/02 09:33:51;;;;;;;13.93;4.93;;;;;;;5.35;40.64;101029.53;4424786;32;20178;-78
2022/03/02 09:36:25;;;;;;;10.27;5.18;;;;;;;5.79;39.19;101029.47;4424308;32;20166;-77
2022/03/02 09:38:54;;;;;;;15.00;5.30;;;;;;;5.86;38.37;101025.22;4424913;32;20077;-76
2022/03/02 09:41:35;;;;;;;16.05;5.00;;;;;;;5.41;39.35;101032.28;4410544;32;20745;-77
2022/03/02 09:44:04;;;;;;;11.63;4.45;;;;;;;5.70;38.61;101026.72;4424658;32;20120;-77
2022/03/02 09:46:35;;;;;;;11.35;4.90;;;;;;;5.78;37.97;101027.72;4427357;32;20759;-76
2022/03/02 09:49:11;;;;;;;10.30;4.95;;;;;;;5.79;38.09;101025.97;4440258;32;20085;-77
2022/03/02 09:51:40;;;;;;;15.25;5.43;;;;;;;6.07;39.16;101030.88;4431557;32;20096;-77
2022/03/02 09:54:08;;;;;;;13.27;4.82;;;;;;;6.34;37.67;101024.34;4438867;32;20108;-76
2022/03/02 09:56:36;;;;;;;13.38;5.12;;;;;;;6.23;38.22;101022.44;4432087;32;20655;-77
2022/03/02 09:59:07;;;;;;;9.65;4.45;;;;;;;6.20;37.45;101024.13;4432808;32;20113;-77
2022/03/02 10:01:36;;;;;;;10.20;4.72;;;;;;;6.30;36.77;101017.28;4435513;32;20181;-77
2022/03/02 10:04:21;;;;;;;10.93;5.10;;;;;;;6.48;36.96;101012.34;4439869;32;20561;-77
2022/03/02 10:06:50;;;;;;;13.23;5.18;;;;;;;6.66;36.49;101016.94;4426781;32;20096;-77
2022/03/02 10:09:21;;;;;;;9.82;5.40;;;;;;;6.55;36.68;101005.47;4439924;32;20112;-77
2022/03/02 10:11:49;;;;;;;10.48;5.72;;;;;;;6.72;36.54;101003.97;4439862;32;20073;-77
2022/03/02 10:14:20;;;;;;;8.48;5.03;;;;;;;6.69;35.43;100994.31;4439627;32;20178;-77
2022/03/02 10:16:57;;;;;;;17.05;5.05;;;;;;;6.98;35.72;101001.66;4439403;32;20166;-78
2022/03/02 10:19:45;;;;;;;9.82;5.03;;;;;;;6.85;36.09;100989.25;4427089;32;20081;-77
2022/03/02 10:22:40;;;;;;;9.85;5.15;;;;;;;6.70;35.29;100989.94;4439551;32;20093;-77
2022/03/02 10:25:16;;;;;;;9.13;4.35;;;;;;;6.87;35.15;100984.94;4438891;32;20128;-77
2022/03/02 10:28:04;;;;;;;9.48;4.93;;;;;;;7.43;34.53;100976.84;4438467;32;20762;-77
2022/03/02 10:30:40;;;;;;;11.35;5.75;;;;;;;7.62;33.80;100978.78;4426676;32;20571;-75
2022/03/02 10:33:25;;;;;;;6.57;4.40;;;;;;;7.34;34.12;100967.12;4422073;32;20147;-75
2022/03/02 10:36:06;;;;;;;9.65;4.80;;;;;;;7.53;33.38;100970.84;4407853;32;20128;-79
2022/03/02 10:39:03;;;;;;;11.63;5.20;;;;;;;7.66;34.73;100966.56;4422950;32;20177;-79
2022/03/02 10:41:35;;;;;;;9.20;4.95;;;;;;;8.34;34.09;100968.03;4422833;32;20145;-78
2022/03/02 10:44:06;;;;;;;10.75;5.00;;;;;;;8.92;33.37;100964.84;4423369;32;20158;-78
2022/03/02 10:46:34;;;;;;;14.60;5.65;;;;;;;8.94;32.28;100953.47;4422753;32;20089;-78
2022/03/02 10:49:21;;;;;;;11.82;5.45;;;;;;;9.28;32.62;100943.06;4423217;32;20131;-79
2022/03/02 10:51:49;;;;;;;13.23;5.20;;;;;;;8.64;32.00;100945.44;4438239;32;20081;-78
2022/03/02 10:54:20;;;;;;;12.57;5.47;;;;;;;8.93;32.12;100941.19;4423790;32;20158;-79
2022/03/02 10:56:54;;;;;;;13.57;6.20;;;;;;;9.45;31.50;100929.94;4437740;32;20089;-78
2022/03/02 10:59:23;;;;;;;9.25;4.90;;;;;;;10.13;29.49;100931.69;4425139;32;20113;-77
2022/03/02 11:01:52;;;;;;;15.80;5.57;;;;;;;11.17;28.16;100926.09;4423385;32;20151;-79
2022/03/02 11:04:22;;;;;;;15.55;6.20;;;;;;;12.47;26.87;100920.63;4423372;32;20089;-76
2022/03/02 11:06:52;;;;;;;11.80;5.70;;;;;;;13.37;26.12;100914.22;4423070;32;20164;-76
2022/03/02 11:09:46;;;;;;;11.82;5.62;;;;;;;13.63;23.73;100913.81;4423417;32;20158;-77
2022/03/02 11:12:14;;;;;;;10.00;5.35;;;;;;;14.70;24.68;100909.25;4424550;32;20089;-76
2022/03/02 11:15:02;;;;;;;10.82;5.47;;;;;;;16.21;22.14;100907.47;4438805;32;20108;-77
2022/03/02 11:17:30;;;;;;;12.18;6.05;;;;;;;15.88;22.39;100901.25;4438851;32;20097;-77
2022/03/02 11:20:04;;;;;;;11.85;5.80;;;;;;;16.21;21.60;100899.50;4438529;32;20164;-77
2022/03/02 11:22:31;;;;;;;13.27;5.25;;;;;;;16.42;21.56;100899.81;4438824;32;20490;-77
2022/03/02 11:24:59;;;;;;;12.98;5.55;;;;;;;17.59;20.30;100887.41;4438642;32;20539;-78
2022/03/02 11:27:41;;;;;;;9.65;5.80;;;;;;;18.04;20.59;100888.63;4438155;32;20144;-76
2022/03/02 11:30:15;;;;;;;10.07;5.75;;;;;;;18.10;19.40;100881.28;4438462;32;20224;-75